< < Back
Terminal Aerodrome Forecast


Current Version              Previous Versions:   1  2  3  4  5  6  7  8  9  

Terminal Aerodrome Forecast

628
FTUS42 KTAE 201100
TAFABY
TAF
KABY 201120Z 2012/2112 02005KT P6SM OVC014
      TEMPO 2012/2014 03008G13KT
     FM201400 04008G15KT P6SM OVC025
     FM202100 05008KT P6SM BKN050
     FM202300 05004KT P6SM SKC=



Latest METAR

641
SAUS70 KWBC 202000 RRE
MTRABY
METAR KABY 201953Z VRB03KT 10SM OVC022 17/12 A3018 RMK AO2 SLP218
T01670117 PNO $


USA.gov is the U.S. government's official web portal to all federal, state and local government web resources and services.